This is the latest recevied weather packets stored in our database for station/object OH6GPB-4. If no packets are shown the sender has not sent any weather packets the latest 1 day(s).
| Time | Temp. | Humidity | Pressure | Rain* | Wind** | Luminosity | Snow |
|---|---|---|---|---|---|---|---|
| 1778003247 | 7.22° C | 50% | 1000 hPa | 0 mm | 1.34 m/s, 250° | 105 W/m² | - |
| 1778001454 | 6.67° C | 54% | 999.9 hPa | 0 mm | 1.79 m/s, 257° | 44 W/m² | - |
| 1777999641 | 7.22° C | 49% | 999.6 hPa | 0 mm | 2.68 m/s, 241° | 121 W/m² | - |
| 1777997858 | 8.33° C | 43% | 999.5 hPa | 0 mm | 2.24 m/s, 226° | 141 W/m² | - |
| 1777996056 | 8.33° C | 45% | 999.3 hPa | 0 mm | 4.02 m/s, 262° | 285 W/m² | - |
| 1777994247 | 8.89° C | 42% | 999.2 hPa | 0 mm | 2.68 m/s, 236° | 160 W/m² | - |
| 1777992442 | 8.33° C | 44% | 999.1 hPa | 0 mm | 1.34 m/s, 266° | 125 W/m² | - |
| 1777990659 | 8.89° C | 40% | 998.7 hPa | 0 mm | 2.24 m/s, 240° | 37 W/m² | - |
| 1777988849 | 8.33° C | 36% | 998.9 hPa | 0 mm | 2.68 m/s, 229° | 139 W/m² | - |
| 1777987056 | 8.89° C | 36% | 998.7 hPa | 0 mm | 2.68 m/s, 248° | 568 W/m² | - |
| 1777985245 | 8.89° C | 37% | 998.6 hPa | 0 mm | 2.24 m/s, 257° | 501 W/m² | - |
| 1777983443 | 8.33° C | 41% | 998.4 hPa | 0 mm | 2.68 m/s, 291° | 687 W/m² | - |
| 1777981644 | 7.78° C | 45% | 998.2 hPa | 0 mm | 4.92 m/s, 275° | 712 W/m² | - |
| 1777979842 | 7.22° C | 47% | 997.8 hPa | 0 mm | 4.02 m/s, 281° | 729 W/m² | - |
| 1777978046 | 7.22° C | 50% | 997.6 hPa | 0 mm | 1.34 m/s, 243° | 737 W/m² | - |
| 1777976241 | 6.67° C | 51% | 997.3 hPa | 0 mm | 4.02 m/s, 261° | 731 W/m² | - |
| 1777974457 | 6.67° C | 51% | 997 hPa | 0 mm | 4.02 m/s, 245° | 721 W/m² | - |
| 1777972657 | 6.11° C | 52% | 996.7 hPa | 0 mm | 2.68 m/s, 264° | 703 W/m² | - |
| 1777970857 | 5.56° C | 58% | 996.5 hPa | 0 mm | 2.24 m/s, 271° | 671 W/m² | - |
| 1777969056 | 5° C | 63% | 996.1 hPa | 0 mm | 2.68 m/s, 296° | 635 W/m² | - |
| 1777967255 | 4.44° C | 64% | 996 hPa | 0 mm | 2.68 m/s, 266° | 594 W/m² | - |
| 1777965452 | 4.44° C | 65% | 995.6 hPa | 0 mm | 4.02 m/s, 289° | 543 W/m² | - |
| 1777963648 | 3.89° C | 69% | 995.4 hPa | 0 mm | 2.68 m/s, 268° | 487 W/m² | - |
* Rain latest hour (hover to see other rain measurements)
** Current wind speed in m/s (hover to see current wind gust speed)